Time;durP1;ratioP1;P1;durP2;ratioP2;P2;SDS_P1;SDS_P2;PMS_P1;PMS_P2;Temp;Humidity;BMP_temperature;BMP_pressure;BME280_temperature;BME280_humidity;BME280_pressure;Samples;Min_cycle;Max_cycle;Signal;HPM_P1;HPM_P2
2021/04/27 00:00:15;;;;;;;3.25;1.95;;;17.90;49.10;;;;;;5004113;28;20160;-77
2021/04/27 00:02:41;;;;;;;3.28;2.20;;;17.90;49.60;;;;;;4986156;28;20230;-77
2021/04/27 00:05:09;;;;;;;2.03;1.42;;;17.90;49.50;;;;;;5004041;28;20161;-77
2021/04/27 00:07:34;;;;;;;2.65;1.77;;;17.90;49.30;;;;;;4970587;28;20211;-78
2021/04/27 00:10:00;;;;;;;2.50;1.90;;;17.90;49.20;;;;;;5003291;28;20183;-77
2021/04/27 00:12:26;;;;;;;3.28;1.73;;;17.90;49.40;;;;;;5004127;28;20159;-78
2021/04/27 00:14:53;;;;;;;3.75;2.28;;;17.90;49.20;;;;;;5003686;28;20160;-77
2021/04/27 00:17:19;;;;;;;2.45;1.65;;;17.90;49.50;;;;;;4986165;28;20203;-77
2021/04/27 00:19:46;;;;;;;4.25;1.90;;;17.90;49.50;;;;;;5003631;28;20169;-77
2021/04/27 00:22:13;;;;;;;3.50;1.85;;;17.90;49.50;;;;;;5003028;28;20167;-78
2021/04/27 00:24:39;;;;;;;4.35;2.00;;;17.80;49.40;;;;;;5003204;28;20536;-77
2021/04/27 00:27:06;;;;;;;4.13;2.10;;;17.80;49.30;;;;;;5004632;28;20192;-76
2021/04/27 00:29:32;;;;;;;3.70;1.83;;;17.90;49.30;;;;;;5003821;28;20250;-77
2021/04/27 00:31:57;;;;;;;4.43;1.75;;;17.80;49.30;;;;;;4986607;28;20148;-77
2021/04/27 00:34:24;;;;;;;2.42;1.65;;;17.80;49.30;;;;;;5003378;28;20499;-77
2021/04/27 00:36:50;;;;;;;2.92;1.90;;;17.80;49.40;;;;;;5002795;28;20191;-78
2021/04/27 00:39:15;;;;;;;4.05;2.03;;;17.90;49.40;;;;;;5003128;28;20234;-77
2021/04/27 00:41:42;;;;;;;3.38;2.00;;;17.80;49.20;;;;;;5003051;28;20165;-77
2021/04/27 00:44:08;;;;;;;5.78;1.92;;;17.80;49.40;;;;;;4986599;28;20164;-78
2021/04/27 00:46:34;;;;;;;3.70;2.10;;;17.80;49.20;;;;;;4986004;28;20164;-78
2021/04/27 00:49:00;;;;;;;3.55;2.00;;;17.80;49.30;;;;;;5002899;28;20215;-77
2021/04/27 00:51:25;;;;;;;3.13;1.85;;;17.80;49.30;;;;;;5003253;28;20291;-77
2021/04/27 00:53:51;;;;;;;4.25;2.03;;;17.80;49.50;;;;;;5002621;28;20161;-77
2021/04/27 00:56:18;;;;;;;3.60;1.95;;;17.80;49.30;;;;;;4984202;28;20491;-78
2021/04/27 00:58:45;;;;;;;3.05;1.73;;;17.80;49.20;;;;;;4986096;28;20493;-77
2021/04/27 01:01:11;;;;;;;5.00;1.80;;;17.80;49.20;;;;;;4986308;28;20171;-77
2021/04/27 01:03:39;;;;;;;2.92;1.70;;;17.80;48.90;;;;;;4984727;28;20748;-78
2021/04/27 01:06:04;;;;;;;4.10;2.17;;;17.80;49.40;;;;;;5003307;28;20284;-77
2021/04/27 01:08:55;;;;;;;2.38;1.90;;;17.80;49.20;;;;;;5003159;28;20208;-77
2021/04/27 01:11:39;;;;;;;6.40;2.20;;;17.80;49.20;;;;;;4985124;28;20219;-77
2021/04/27 01:14:10;;;;;;;2.63;1.80;;;17.80;49.10;;;;;;4985188;28;20163;-78
2021/04/27 01:16:43;;;;;;;2.42;1.80;;;17.80;49.50;;;;;;4985712;28;20295;-77
2021/04/27 01:19:13;;;;;;;4.82;1.77;;;17.80;49.30;;;;;;5002624;28;20155;-77
2021/04/27 01:21:47;;;;;;;3.17;2.00;;;17.80;49.50;;;;;;4985016;28;20152;-77
2021/04/27 01:24:45;;;;;;;3.05;2.05;;;17.80;49.30;;;;;;4984917;28;20214;-77
2021/04/27 01:27:11;;;;;;;4.13;1.67;;;17.80;49.40;;;;;;4903941;29;21265;-77
2021/04/27 01:29:59;;;;;;;3.17;1.85;;;17.80;49.40;;;;;;4888481;29;20199;-77
2021/04/27 01:32:25;;;;;;;2.83;1.60;;;17.80;49.60;;;;;;4904876;29;20211;-77
2021/04/27 01:34:51;;;;;;;2.35;1.77;;;17.80;49.40;;;;;;4872985;29;20163;-78
2021/04/27 01:37:17;;;;;;;2.65;2.00;;;17.80;49.30;;;;;;4887718;29;20710;-77
2021/04/27 01:40:03;;;;;;;2.67;1.67;;;17.70;49.50;;;;;;4888845;29;20172;-78
2021/04/27 01:42:28;;;;;;;2.92;1.90;;;17.70;49.60;;;;;;4903741;29;20207;-77
2021/04/27 01:44:54;;;;;;;3.83;2.35;;;17.70;49.10;;;;;;4888511;29;20694;-77
2021/04/27 01:47:20;;;;;;;5.05;1.80;;;17.70;49.40;;;;;;4888599;29;20259;-77
2021/04/27 01:49:45;;;;;;;2.58;2.13;;;17.70;49.40;;;;;;4903881;29;20359;-77
2021/04/27 01:52:19;;;;;;;3.65;1.83;;;17.70;49.30;;;;;;4904085;29;20295;-77
2021/04/27 01:54:45;;;;;;;3.80;2.00;;;17.70;49.70;;;;;;4887967;29;20163;-77
2021/04/27 01:57:11;;;;;;;3.08;1.90;;;17.70;49.60;;;;;;4887601;29;20260;-78
2021/04/27 01:59:37;;;;;;;2.97;1.77;;;17.70;49.20;;;;;;4903833;29;20171;-77
2021/04/27 02:02:02;;;;;;;2.45;1.60;;;17.70;49.50;;;;;;4888970;29;20223;-77
2021/04/27 02:04:29;;;;;;;3.13;1.83;;;17.70;49.40;;;;;;4993197;28;20188;-78
2021/04/27 02:06:55;;;;;;;3.80;2.03;;;17.70;49.60;;;;;;5001683;28;20156;-78
2021/04/27 02:09:22;;;;;;;2.60;1.92;;;17.70;49.50;;;;;;4983752;28;20180;-78
2021/04/27 02:11:49;;;;;;;3.15;1.70;;;17.70;49.60;;;;;;5001574;28;20631;-78
2021/04/27 02:14:15;;;;;;;3.63;1.77;;;17.70;49.40;;;;;;5001629;28;20171;-78
2021/04/27 02:16:48;;;;;;;3.72;1.90;;;17.70;49.30;;;;;;4984246;28;20156;-77
2021/04/27 02:19:13;;;;;;;3.17;1.80;;;17.70;49.40;;;;;;4968613;28;20164;-77
2021/04/27 02:21:39;;;;;;;4.22;1.90;;;17.70;49.30;;;;;;4984173;28;20163;-78
2021/04/27 02:24:06;;;;;;;2.80;1.92;;;17.70;49.50;;;;;;5001353;28;20156;-78
2021/04/27 02:26:32;;;;;;;3.65;1.95;;;17.70;49.30;;;;;;4967647;28;20156;-77
2021/04/27 02:29:01;;;;;;;3.22;1.88;;;17.70;49.10;;;;;;4968686;28;20144;-77
2021/04/27 02:31:28;;;;;;;2.03;1.70;;;17.70;49.10;;;;;;4967474;28;20256;-78
2021/04/27 02:33:53;;;;;;;3.38;1.77;;;17.70;49.10;;;;;;4967802;28;20156;-77
2021/04/27 02:36:21;;;;;;;2.60;1.80;;;17.70;49.10;;;;;;5001867;28;20586;-77
2021/04/27 02:38:56;;;;;;;2.35;1.80;;;17.70;49.40;;;;;;5000926;28;20604;-77
2021/04/27 02:41:28;;;;;;;2.63;1.70;;;17.70;49.20;;;;;;4983151;28;20160;-78
2021/04/27 02:43:56;;;;;;;3.40;2.00;;;17.70;49.40;;;;;;4983361;28;20227;-77
2021/04/27 02:46:22;;;;;;;2.92;1.63;;;17.70;49.30;;;;;;5001132;28;20195;-77
2021/04/27 02:48:48;;;;;;;4.28;2.08;;;17.70;49.40;;;;;;5001046;28;20191;-77
2021/04/27 02:51:15;;;;;;;2.55;1.80;;;17.70;49.30;;;;;;5001243;28;20266;-77
2021/04/27 02:53:40;;;;;;;1.75;1.63;;;17.70;49.30;;;;;;5001632;28;20160;-77
2021/04/27 02:56:06;;;;;;;3.67;1.90;;;17.70;49.10;;;;;;5000367;28;20163;-78
2021/04/27 02:58:32;;;;;;;2.97;1.80;;;17.70;49.40;;;;;;5000670;28;20164;-78
2021/04/27 03:00:57;;;;;;;2.47;1.70;;;17.70;49.30;;;;;;5001145;28;20180;-77
2021/04/27 03:03:23;;;;;;;2.78;1.95;;;17.60;49.40;;;;;;5002080;28;20224;-77
2021/04/27 03:05:49;;;;;;;2.30;1.63;;;17.70;49.40;;;;;;5000451;28;20164;-77
2021/04/27 03:08:16;;;;;;;2.97;1.60;;;17.70;49.30;;;;;;4985227;28;20626;-77
2021/04/27 03:10:42;;;;;;;2.92;1.90;;;17.70;49.30;;;;;;5001469;28;20192;-77
2021/04/27 03:13:09;;;;;;;3.13;1.90;;;17.60;49.20;;;;;;5000961;28;20519;-77
2021/04/27 03:15:35;;;;;;;1.90;1.67;;;17.70;49.40;;;;;;5000538;28;20160;-78
2021/04/27 03:18:02;;;;;;;2.97;1.67;;;17.70;49.20;;;;;;4983097;28;20152;-77
2021/04/27 03:20:28;;;;;;;3.85;1.80;;;17.70;49.40;;;;;;4986233;28;20168;-77
2021/04/27 03:22:54;;;;;;;2.55;1.70;;;17.60;49.10;;;;;;4988222;28;20163;-77
2021/04/27 03:25:19;;;;;;;3.03;1.60;;;17.60;49.10;;;;;;4988058;28;20647;-77
2021/04/27 03:27:54;;;;;;;2.22;1.52;;;17.70;49.10;;;;;;4987332;28;20188;-77
2021/04/27 03:30:21;;;;;;;3.30;1.92;;;17.60;49.30;;;;;;5004604;28;20187;-77
2021/04/27 03:32:47;;;;;;;3.65;1.80;;;17.60;49.20;;;;;;4986588;28;20171;-78
2021/04/27 03:35:14;;;;;;;1.90;1.58;;;17.60;49.30;;;;;;5004427;28;20215;-77
2021/04/27 03:37:41;;;;;;;4.20;1.90;;;17.70;49.20;;;;;;5004001;28;20156;-77
2021/04/27 03:40:08;;;;;;;3.78;1.75;;;17.60;49.40;;;;;;4987497;28;20219;-78
2021/04/27 03:42:35;;;;;;;2.75;2.00;;;17.70;49.30;;;;;;5005110;28;20635;-78
2021/04/27 03:45:02;;;;;;;2.58;1.70;;;17.60;49.30;;;;;;4986928;28;20157;-78
2021/04/27 03:47:30;;;;;;;3.03;1.80;;;17.60;49.20;;;;;;4987022;28;20168;-78
2021/04/27 03:49:56;;;;;;;3.42;1.90;;;17.60;49.20;;;;;;5004446;28;20188;-78
2021/04/27 03:52:21;;;;;;;4.78;1.77;;;17.60;49.00;;;;;;4987113;28;20161;-77
2021/04/27 03:54:48;;;;;;;3.45;2.17;;;17.60;49.20;;;;;;4987606;28;20624;-76
2021/04/27 03:57:22;;;;;;;3.03;1.60;;;17.60;49.20;;;;;;4986087;28;20176;-78
2021/04/27 03:59:48;;;;;;;2.17;1.98;;;17.60;49.10;;;;;;4970050;28;20182;-77
2021/04/27 04:02:14;;;;;;;4.18;1.90;;;17.60;49.10;;;;;;5004904;28;20298;-77
2021/04/27 04:04:40;;;;;;;2.03;1.50;;;17.60;49.00;;;;;;4987640;28;20560;-78
2021/04/27 04:07:05;;;;;;;2.35;1.75;;;17.70;48.40;;;;;;4986697;28;20638;-78
2021/04/27 04:09:32;;;;;;;1.90;1.50;;;17.70;48.80;;;;;;4987083;28;20184;-79
2021/04/27 04:11:57;;;;;;;3.65;2.00;;;17.70;48.00;;;;;;4971027;28;20156;-78
2021/04/27 04:14:23;;;;;;;1.85;1.60;;;17.80;48.50;;;;;;5004318;28;20161;-78
2021/04/27 04:16:49;;;;;;;3.53;1.80;;;17.80;48.30;;;;;;4986608;28;20180;-78
2021/04/27 04:19:16;;;;;;;3.45;1.60;;;17.80;47.60;;;;;;5004236;28;20220;-78
2021/04/27 04:21:43;;;;;;;3.00;1.60;;;17.90;47.50;;;;;;5004766;28;20153;-78
2021/04/27 04:24:11;;;;;;;2.90;1.40;;;17.90;47.50;;;;;;4986448;28;20276;-77
2021/04/27 04:26:38;;;;;;;1.65;1.55;;;18.00;47.00;;;;;;5003802;28;20170;-77
2021/04/27 04:29:05;;;;;;;3.72;1.80;;;18.00;47.60;;;;;;4986435;28;20164;-78
2021/04/27 04:31:39;;;;;;;3.00;2.05;;;18.00;47.10;;;;;;4985254;28;20173;-78
2021/04/27 04:34:06;;;;;;;3.63;1.60;;;17.90;47.30;;;;;;4986462;28;20172;-78
2021/04/27 04:36:32;;;;;;;2.05;1.52;;;18.00;47.10;;;;;;5003705;28;20161;-78
2021/04/27 04:38:58;;;;;;;2.33;1.70;;;18.00;46.60;;;;;;5003667;28;20156;-77
2021/04/27 04:41:24;;;;;;;2.67;1.70;;;18.00;46.90;;;;;;5003487;28;20161;-78
2021/04/27 04:43:49;;;;;;;2.50;1.50;;;18.00;46.60;;;;;;5003198;28;20187;-78
2021/04/27 04:46:15;;;;;;;2.63;1.90;;;18.10;46.60;;;;;;5003229;28;20160;-78
2021/04/27 04:48:40;;;;;;;2.28;1.50;;;18.10;46.30;;;;;;5002809;28;20590;-78
2021/04/27 04:51:06;;;;;;;2.35;1.60;;;18.10;46.60;;;;;;5003123;28;20279;-78
2021/04/27 04:53:32;;;;;;;3.00;1.70;;;18.10;47.20;;;;;;5003587;28;20180;-77
2021/04/27 04:55:57;;;;;;;1.88;1.60;;;18.10;46.90;;;;;;4986384;28;20156;-78
2021/04/27 04:58:24;;;;;;;1.80;1.52;;;18.10;46.90;;;;;;5003392;28;20211;-77
2021/04/27 05:00:50;;;;;;;3.67;1.52;;;18.10;46.70;;;;;;4985895;28;20195;-78
2021/04/27 05:03:15;;;;;;;3.30;1.77;;;18.10;46.10;;;;;;5002806;28;20220;-78
2021/04/27 05:05:42;;;;;;;2.80;1.52;;;18.20;46.20;;;;;;5002987;28;20168;-78
2021/04/27 05:08:12;;;;;;;2.10;1.27;;;18.20;46.50;;;;;;4986912;28;20148;-78
2021/04/27 05:10:39;;;;;;;2.47;1.75;;;18.20;45.80;;;;;;5003672;28;20196;-77
2021/04/27 05:13:05;;;;;;;1.92;1.65;;;18.20;46.00;;;;;;4985930;28;20168;-78
2021/04/27 05:15:33;;;;;;;1.85;1.45;;;18.20;45.70;;;;;;4970910;28;20219;-80
2021/04/27 05:17:59;;;;;;;1.77;1.42;;;18.30;45.90;;;;;;5004426;28;20156;-78
2021/04/27 05:20:25;;;;;;;2.85;1.50;;;18.30;45.90;;;;;;4969797;28;20306;-78
2021/04/27 05:22:50;;;;;;;2.13;1.60;;;18.30;45.60;;;;;;4969159;28;20168;-78
2021/04/27 05:25:16;;;;;;;1.80;1.23;;;18.30;45.60;;;;;;5004112;28;20267;-77
2021/04/27 05:27:42;;;;;;;1.88;1.70;;;18.30;46.00;;;;;;5003649;28;20678;-77
2021/04/27 05:30:08;;;;;;;2.42;1.60;;;18.20;45.70;;;;;;5001482;28;20221;-76
2021/04/27 05:32:34;;;;;;;2.97;1.55;;;18.30;45.80;;;;;;5005349;28;20163;-77
2021/04/27 05:35:00;;;;;;;1.70;1.40;;;18.20;45.50;;;;;;5005049;28;20162;-77
2021/04/27 05:37:27;;;;;;;1.75;1.60;;;18.30;45.70;;;;;;5005663;28;20160;-77
2021/04/27 05:39:52;;;;;;;2.30;1.85;;;18.30;45.70;;;;;;5005626;28;20187;-77
2021/04/27 05:42:18;;;;;;;1.95;1.50;;;18.20;46.40;;;;;;5022586;28;20198;-78
2021/04/27 05:44:45;;;;;;;3.58;1.80;;;18.20;45.60;;;;;;5022243;28;20159;-78
2021/04/27 05:47:10;;;;;;;2.35;1.60;;;18.30;46.00;;;;;;5021993;28;20156;-78
2021/04/27 05:49:36;;;;;;;2.60;1.60;;;18.20;45.60;;;;;;5002059;28;20591;-78
2021/04/27 05:52:02;;;;;;;2.42;1.50;;;18.30;46.50;;;;;;5004250;28;20165;-77
2021/04/27 05:54:28;;;;;;;1.55;1.45;;;18.30;45.60;;;;;;4987813;28;20157;-76
2021/04/27 05:56:53;;;;;;;2.40;1.88;;;18.30;45.70;;;;;;5004232;28;20498;-77
2021/04/27 05:59:20;;;;;;;2.97;1.88;;;18.20;45.60;;;;;;5004728;28;20171;-76
2021/04/27 06:01:46;;;;;;;1.88;1.55;;;18.30;45.80;;;;;;4985063;28;20314;-77
2021/04/27 06:04:12;;;;;;;2.00;1.80;;;18.30;45.30;;;;;;4985114;28;20211;-78
2021/04/27 06:06:38;;;;;;;1.38;1.15;;;18.30;45.90;;;;;;5003983;28;20183;-76
2021/04/27 06:09:05;;;;;;;1.88;1.48;;;18.30;45.50;;;;;;5004086;28;20199;-77
2021/04/27 06:11:31;;;;;;;1.98;1.50;;;18.30;46.30;;;;;;4969856;28;20192;-78
2021/04/27 06:13:57;;;;;;;3.15;1.80;;;18.30;45.70;;;;;;5002393;28;20163;-76
2021/04/27 06:16:24;;;;;;;1.60;1.50;;;18.30;45.90;;;;;;5005020;28;20183;-77
2021/04/27 06:18:50;;;;;;;1.48;1.35;;;18.20;46.00;;;;;;4987422;28;20160;-77
2021/04/27 06:21:16;;;;;;;2.15;1.58;;;18.30;45.40;;;;;;4971680;28;20190;-77
2021/04/27 06:23:42;;;;;;;3.28;1.70;;;18.20;45.50;;;;;;5004502;28;20156;-76
2021/04/27 06:26:07;;;;;;;2.17;1.50;;;18.20;45.70;;;;;;5004118;28;20730;-77
2021/04/27 06:28:34;;;;;;;2.20;1.52;;;18.20;45.50;;;;;;5005276;28;20619;-77
2021/04/27 06:31:00;;;;;;;3.92;1.77;;;18.20;45.60;;;;;;5006008;28;20219;-77
2021/04/27 06:33:26;;;;;;;2.28;1.50;;;18.20;44.20;;;;;;5006044;28;20175;-77
2021/04/27 06:35:52;;;;;;;2.45;1.35;;;18.30;44.00;;;;;;4969560;28;20172;-78
2021/04/27 06:38:19;;;;;;;2.70;1.80;;;18.20;44.60;;;;;;4967247;28;20679;-77
2021/04/27 06:40:48;;;;;;;1.40;1.30;;;18.30;44.50;;;;;;4992710;28;20172;-78
2021/04/27 06:43:18;;;;;;;3.28;1.88;;;18.30;44.00;;;;;;4987958;28;20152;-78
2021/04/27 06:45:45;;;;;;;3.00;1.50;;;18.30;43.90;;;;;;5003926;28;20165;-77
2021/04/27 06:48:12;;;;;;;2.08;1.55;;;18.30;43.90;;;;;;5003115;28;20231;-77
2021/04/27 06:50:39;;;;;;;3.33;1.50;;;18.30;44.00;;;;;;5003322;28;20300;-78
2021/04/27 06:53:08;;;;;;;3.10;1.70;;;18.30;44.00;;;;;;5004903;28;20343;-78
2021/04/27 06:55:34;;;;;;;1.88;1.60;;;18.30;44.40;;;;;;5004204;28;20160;-77
2021/04/27 06:58:10;;;;;;;2.03;1.60;;;18.20;45.30;;;;;;4987207;28;20156;-78
2021/04/27 07:00:36;;;;;;;2.28;1.63;;;18.20;43.10;;;;;;5004568;28;20166;-78
2021/04/27 07:03:03;;;;;;;1.70;1.45;;;18.30;44.00;;;;;;5004459;28;20243;-77
2021/04/27 07:05:29;;;;;;;2.15;1.80;;;18.30;44.60;;;;;;4987432;28;20168;-77
2021/04/27 07:07:56;;;;;;;2.20;1.55;;;18.20;45.60;;;;;;5005020;28;20164;-77
2021/04/27 07:10:21;;;;;;;1.50;1.38;;;18.20;44.70;;;;;;4987418;28;20180;-78
2021/04/27 07:12:47;;;;;;;2.03;1.50;;;18.20;44.20;;;;;;4987314;28;20159;-77
2021/04/27 07:15:13;;;;;;;1.70;1.60;;;18.20;45.60;;;;;;4987081;28;20161;-77
2021/04/27 07:17:40;;;;;;;2.22;1.50;;;18.20;44.50;;;;;;4986469;28;20168;-77
2021/04/27 07:20:08;;;;;;;2.25;1.65;;;18.20;44.40;;;;;;4986912;28;20638;-77
2021/04/27 07:22:35;;;;;;;5.43;1.45;;;18.20;45.00;;;;;;4987482;28;20164;-77
2021/04/27 07:25:04;;;;;;;3.65;1.60;;;18.30;45.70;;;;;;4987096;28;20157;-77
2021/04/27 07:27:31;;;;;;;1.60;1.27;;;18.20;44.20;;;;;;5004852;28;20193;-77
2021/04/27 07:30:01;;;;;;;2.42;1.58;;;18.30;43.90;;;;;;4971302;28;20628;-77
2021/04/27 07:32:26;;;;;;;2.22;1.42;;;18.30;44.50;;;;;;5004758;28;20584;-77
2021/04/27 07:34:52;;;;;;;2.90;1.50;;;18.30;43.20;;;;;;5004704;28;20164;-77
2021/04/27 07:37:19;;;;;;;2.13;1.40;;;18.30;43.70;;;;;;5004917;28;20152;-77
2021/04/27 07:39:45;;;;;;;4.97;1.80;;;18.30;43.70;;;;;;4987669;28;20623;-77
2021/04/27 07:42:11;;;;;;;6.70;2.33;;;18.30;43.80;;;;;;5004605;28;20164;-77
2021/04/27 07:44:37;;;;;;;6.28;1.83;;;18.40;42.50;;;;;;5004774;28;20166;-77
2021/04/27 07:47:03;;;;;;;4.20;1.60;;;18.40;42.80;;;;;;4987302;28;20615;-78
2021/04/27 07:49:29;;;;;;;3.15;1.58;;;18.50;42.80;;;;;;4970777;28;20186;-77
2021/04/27 07:51:55;;;;;;;10.15;2.00;;;18.50;42.80;;;;;;5004641;28;20191;-76
2021/04/27 07:54:22;;;;;;;4.55;1.70;;;18.50;44.50;;;;;;4971033;28;20175;-77
2021/04/27 07:56:47;;;;;;;8.20;1.75;;;18.60;43.30;;;;;;4986819;28;20219;-77
2021/04/27 07:59:13;;;;;;;5.45;2.10;;;18.60;43.70;;;;;;5004735;28;20180;-77
2021/04/27 08:01:39;;;;;;;8.25;1.67;;;18.50;43.90;;;;;;4987384;28;20227;-77
2021/04/27 08:04:06;;;;;;;6.72;2.10;;;18.60;44.30;;;;;;5002476;28;20228;-77
2021/04/27 08:06:31;;;;;;;8.52;2.05;;;18.60;44.10;;;;;;5007058;28;20615;-77
2021/04/27 08:08:57;;;;;;;5.57;1.73;;;18.50;44.10;;;;;;4990277;28;20195;-78
2021/04/27 08:11:24;;;;;;;2.22;1.48;;;18.50;43.50;;;;;;4990628;28;20215;-78
2021/04/27 08:13:50;;;;;;;4.75;1.88;;;18.50;44.30;;;;;;5007962;28;20163;-78
2021/04/27 08:16:16;;;;;;;5.72;1.70;;;18.40;44.80;;;;;;4990104;28;20167;-77
2021/04/27 08:18:42;;;;;;;3.08;1.63;;;18.50;43.80;;;;;;4990290;28;20180;-78
2021/04/27 08:21:10;;;;;;;4.78;1.83;;;18.50;44.10;;;;;;5008075;28;20184;-78
2021/04/27 08:23:36;;;;;;;4.40;1.77;;;18.60;43.80;;;;;;4974778;28;20172;-78
2021/04/27 08:26:05;;;;;;;3.20;1.63;;;18.50;43.70;;;;;;5007703;28;20171;-79
2021/04/27 08:28:31;;;;;;;4.43;1.88;;;18.50;44.60;;;;;;5007911;28;20216;-78
2021/04/27 08:30:58;;;;;;;2.33;1.75;;;18.50;44.50;;;;;;4988579;28;20226;-77
2021/04/27 08:33:25;;;;;;;5.90;1.75;;;18.50;44.90;;;;;;5006557;28;20164;-77
2021/04/27 08:35:52;;;;;;;3.38;1.60;;;18.40;43.90;;;;;;4989288;28;20168;-77
2021/04/27 08:38:20;;;;;;;1.67;1.38;;;18.50;43.60;;;;;;4990202;28;20160;-77
2021/04/27 08:40:47;;;;;;;2.70;1.42;;;18.50;43.40;;;;;;4990569;28;20156;-77
2021/04/27 08:43:14;;;;;;;4.85;1.95;;;18.50;42.70;;;;;;5006718;28;20167;-78
2021/04/27 08:45:41;;;;;;;5.47;1.65;;;18.60;42.90;;;;;;5007460;28;20167;-78
2021/04/27 08:48:14;;;;;;;4.47;1.58;;;18.60;43.70;;;;;;4990188;28;20174;-78
2021/04/27 08:50:42;;;;;;;2.25;1.40;;;18.60;43.70;;;;;;4988791;28;20299;-78
2021/04/27 08:53:08;;;;;;;3.45;1.42;;;18.60;43.20;;;;;;4990096;28;20634;-78
2021/04/27 08:55:35;;;;;;;3.47;1.50;;;18.60;41.80;;;;;;4974015;28;20172;-77
2021/04/27 08:58:06;;;;;;;2.05;1.65;;;18.70;41.70;;;;;;5007849;28;20153;-78
2021/04/27 09:00:33;;;;;;;2.25;1.33;;;18.70;42.50;;;;;;5007026;28;20153;-78
2021/04/27 09:03:01;;;;;;;3.53;1.42;;;18.70;42.10;;;;;;5006278;28;20220;-78
2021/04/27 09:05:30;;;;;;;3.05;1.40;;;18.70;42.20;;;;;;4974012;28;20191;-78
2021/04/27 09:07:57;;;;;;;1.90;1.50;;;18.80;41.90;;;;;;4988277;28;20223;-79
2021/04/27 09:10:26;;;;;;;3.53;1.52;;;18.80;42.50;;;;;;4988783;28;20207;-77
2021/04/27 09:13:12;;;;;;;3.17;1.50;;;18.70;42.80;;;;;;5006557;28;20212;-78
2021/04/27 09:15:48;;;;;;;3.15;1.73;;;18.80;42.60;;;;;;4987638;28;20160;-78
2021/04/27 09:18:29;;;;;;;2.88;1.77;;;18.80;42.50;;;;;;4971826;28;20535;-78
2021/04/27 09:21:04;;;;;;;2.47;1.60;;;18.80;42.90;;;;;;5006029;28;20186;-79
2021/04/27 09:23:43;;;;;;;2.00;1.10;;;18.80;43.00;;;;;;5006117;28;20533;-78
2021/04/27 09:26:23;;;;;;;2.22;1.70;;;18.80;42.80;;;;;;4987528;28;20168;-79
2021/04/27 09:28:53;;;;;;;7.50;1.85;;;18.80;41.90;;;;;;5005252;28;20530;-78
2021/04/27 09:31:37;;;;;;;2.63;1.60;;;18.90;42.00;;;;;;4987117;28;20225;-78
2021/04/27 09:34:34;;;;;;;4.82;1.73;;;18.80;42.60;;;;;;5004621;28;20160;-78
2021/04/27 09:37:10;;;;;;;1.98;1.45;;;18.80;42.40;;;;;;4924824;29;20183;-79
2021/04/27 09:39:39;;;;;;;4.13;1.30;;;18.80;42.40;;;;;;4910168;29;20174;-77
2021/04/27 09:42:13;;;;;;;2.38;1.63;;;18.80;41.70;;;;;;4925513;29;20186;-79
2021/04/27 09:44:59;;;;;;;3.20;1.60;;;18.80;41.90;;;;;;4924869;29;20163;-77
2021/04/27 09:47:52;;;;;;;2.05;1.50;;;18.80;42.10;;;;;;4924771;29;20198;-79
2021/04/27 09:50:38;;;;;;;3.47;1.60;;;18.80;42.00;;;;;;4925660;29;20195;-79
2021/04/27 09:53:38;;;;;;;4.43;1.70;;;18.80;42.40;;;;;;4924509;29;20167;-78
2021/04/27 09:56:30;;;;;;;2.15;1.45;;;18.80;42.80;;;;;;4926190;29;20183;-80
2021/04/27 09:59:28;;;;;;;1.50;1.30;;;18.80;42.90;;;;;;4922216;29;20666;-77
2021/04/27 10:01:55;;;;;;;1.52;1.42;;;18.80;42.60;;;;;;4921043;29;20178;-77
2021/04/27 10:04:47;;;;;;;2.60;1.45;;;18.80;42.40;;;;;;4925472;29;20171;-77
2021/04/27 10:07:33;;;;;;;2.42;1.30;;;18.80;42.50;;;;;;4923974;29;20269;-77
2021/04/27 10:10:17;;;;;;;3.45;1.90;;;18.80;41.90;;;;;;4923779;29;20206;-77
2021/04/27 10:12:52;;;;;;;3.10;1.42;;;18.80;42.60;;;;;;4943245;28;20183;-77
2021/04/27 10:15:18;;;;;;;3.05;1.60;;;18.80;42.80;;;;;;4985223;28;20206;-77
2021/04/27 10:17:45;;;;;;;1.45;1.33;;;18.80;42.30;;;;;;4969177;28;20522;-77
2021/04/27 10:20:14;;;;;;;1.50;1.40;;;18.80;42.40;;;;;;4985775;28;20160;-77
2021/04/27 10:23:07;;;;;;;1.63;1.48;;;18.80;42.20;;;;;;5001678;28;20164;-77
2021/04/27 10:25:35;;;;;;;2.85;1.40;;;18.80;42.30;;;;;;4984852;28;20317;-78
2021/04/27 10:28:06;;;;;;;1.83;1.40;;;18.80;42.40;;;;;;4970578;28;20175;-78
2021/04/27 10:30:42;;;;;;;2.88;1.67;;;18.80;42.10;;;;;;4986429;28;20266;-81
2021/04/27 10:33:19;;;;;;;1.77;1.52;;;18.80;42.60;;;;;;4988764;28;20219;-79
2021/04/27 10:36:01;;;;;;;2.05;1.50;;;18.70;42.80;;;;;;5005523;28;20207;-81
2021/04/27 10:38:44;;;;;;;1.75;1.27;;;18.70;42.00;;;;;;5006126;28;20523;-80
2021/04/27 10:41:22;;;;;;;1.58;1.30;;;18.70;42.60;;;;;;5003852;28;20160;-78
2021/04/27 10:43:56;;;;;;;2.30;1.50;;;18.70;42.40;;;;;;4986538;28;20218;-78
2021/04/27 10:46:22;;;;;;;1.95;1.75;;;18.70;42.90;;;;;;5003642;28;20191;-78
2021/04/27 10:48:49;;;;;;;1.60;1.30;;;18.80;42.20;;;;;;5000272;28;20160;-77
2021/04/27 10:51:20;;;;;;;1.75;1.33;;;18.70;42.20;;;;;;5000730;28;20207;-79
2021/04/27 10:54:06;;;;;;;3.17;1.52;;;18.80;42.00;;;;;;4999764;28;20156;-78
2021/04/27 10:56:40;;;;;;;2.60;1.80;;;18.80;42.30;;;;;;4998736;28;20152;-79
2021/04/27 10:59:26;;;;;;;1.73;1.60;;;18.80;42.00;;;;;;4980054;28;20164;-78
2021/04/27 11:02:17;;;;;;;2.10;1.50;;;18.70;42.60;;;;;;4981663;28;20171;-78
2021/04/27 11:04:45;;;;;;;2.60;1.85;;;18.70;41.90;;;;;;5001622;28;20183;-78
2021/04/27 11:07:21;;;;;;;1.52;1.40;;;18.70;42.40;;;;;;5001918;28;20634;-78
2021/04/27 11:09:59;;;;;;;2.03;1.40;;;18.70;42.40;;;;;;5001995;28;20197;-79
2021/04/27 11:12:41;;;;;;;1.33;1.23;;;18.70;42.60;;;;;;5003022;28;20163;-78
2021/04/27 11:15:10;;;;;;;2.53;1.40;;;18.70;42.50;;;;;;4984261;28;20682;-79
2021/04/27 11:17:41;;;;;;;2.97;1.60;;;18.70;42.40;;;;;;5002445;28;20167;-78
2021/04/27 11:20:10;;;;;;;1.65;1.30;;;18.70;42.10;;;;;;5002220;28;20160;-78
2021/04/27 11:22:38;;;;;;;4.65;1.50;;;18.70;42.80;;;;;;4982911;28;20191;-78
2021/04/27 11:25:06;;;;;;;1.52;1.42;;;18.80;41.80;;;;;;4981567;28;20184;-79
2021/04/27 11:27:55;;;;;;;1.55;1.10;;;18.80;42.20;;;;;;4981006;28;20172;-80
2021/04/27 11:30:33;;;;;;;1.42;1.17;;;18.80;42.60;;;;;;5000209;28;20228;-79
2021/04/27 11:33:03;;;;;;;1.50;1.40;;;18.80;42.30;;;;;;5000855;28;20307;-78
2021/04/27 11:35:44;;;;;;;1.98;1.58;;;18.70;42.10;;;;;;4983641;28;20155;-78
2021/04/27 11:38:11;;;;;;;1.92;1.35;;;18.80;42.10;;;;;;5000529;28;20160;-77
2021/04/27 11:40:41;;;;;;;1.60;1.50;;;18.70;42.10;;;;;;4998967;28;20156;-77
2021/04/27 11:43:33;;;;;;;2.17;1.58;;;18.80;41.90;;;;;;5002777;28;20178;-78
2021/04/27 11:46:01;;;;;;;1.70;1.60;;;18.70;42.20;;;;;;5001849;28;20191;-78
2021/04/27 11:48:28;;;;;;;2.50;1.38;;;18.80;42.50;;;;;;5005259;28;20206;-77
2021/04/27 11:50:54;;;;;;;1.45;1.35;;;18.70;42.10;;;;;;5007248;28;20192;-77
2021/04/27 11:53:21;;;;;;;1.48;1.30;;;18.70;42.30;;;;;;4989035;28;20180;-77
2021/04/27 11:55:49;;;;;;;2.92;1.63;;;18.70;42.10;;;;;;5001897;28;20176;-76
2021/04/27 11:58:39;;;;;;;1.50;1.30;;;18.80;41.90;;;;;;4982876;28;20215;-76
2021/04/27 12:01:06;;;;;;;1.58;1.48;;;18.80;41.90;;;;;;4997674;28;20715;-77
2021/04/27 12:03:40;;;;;;;1.75;1.63;;;18.80;42.00;;;;;;4982084;28;20223;-79
2021/04/27 12:06:09;;;;;;;1.70;1.30;;;18.70;42.10;;;;;;5002975;28;20176;-79
2021/04/27 12:08:36;;;;;;;1.98;1.67;;;18.70;42.10;;;;;;5003311;28;20180;-77
2021/04/27 12:11:21;;;;;;;1.98;1.48;;;18.80;41.80;;;;;;4997199;28;20196;-77
2021/04/27 12:13:52;;;;;;;2.22;1.98;;;18.80;41.90;;;;;;4999126;28;20507;-77
2021/04/27 12:16:19;;;;;;;1.92;1.50;;;18.70;42.10;;;;;;4997879;28;20152;-78
2021/04/27 12:18:49;;;;;;;3.35;1.63;;;18.70;41.70;;;;;;4997824;28;20598;-77
2021/04/27 12:21:25;;;;;;;2.10;1.30;;;18.70;41.60;;;;;;4979805;28;20214;-77
2021/04/27 12:24:18;;;;;;;1.38;1.27;;;18.80;41.60;;;;;;4979458;28;20175;-76
2021/04/27 12:26:49;;;;;;;2.83;1.40;;;18.70;42.10;;;;;;4997505;28;20247;-79
2021/04/27 12:29:15;;;;;;;1.50;1.40;;;18.70;42.10;;;;;;4981998;28;20253;-81
2021/04/27 12:31:41;;;;;;;2.42;1.70;;;18.80;41.60;;;;;;4980774;28;20219;-80
2021/04/27 12:34:08;;;;;;;1.50;1.38;;;18.80;41.80;;;;;;4998159;28;20204;-80
2021/04/27 12:36:41;;;;;;;2.95;1.60;;;18.80;41.80;;;;;;4980284;28;20707;-80
2021/04/27 12:39:27;;;;;;;1.88;1.33;;;18.80;42.40;;;;;;4997646;28;20211;-78
2021/04/27 12:41:55;;;;;;;2.60;1.70;;;18.70;41.80;;;;;;4976924;28;20172;-78
2021/04/27 12:44:43;;;;;;;1.70;1.60;;;18.70;42.30;;;;;;4979497;28;20192;-77
2021/04/27 12:47:36;;;;;;;1.90;1.45;;;18.70;42.20;;;;;;4996708;28;20172;-77
2021/04/27 12:50:26;;;;;;;2.88;1.33;;;18.80;41.50;;;;;;4999362;28;20195;-76
2021/04/27 12:52:56;;;;;;;1.95;1.70;;;18.80;42.30;;;;;;4979976;28;20159;-78
2021/04/27 12:55:22;;;;;;;1.73;1.50;;;18.80;41.70;;;;;;4998467;28;20167;-76
2021/04/27 12:58:11;;;;;;;2.20;1.70;;;18.80;41.70;;;;;;5002123;28;20160;-77
2021/04/27 13:01:08;;;;;;;2.50;1.42;;;18.80;41.60;;;;;;4998994;28;20206;-79